Time;durP1;ratioP1;P1;durP2;ratioP2;P2;SDS_P1;SDS_P2;PMS_P1;PMS_P2;Temp;Humidity;BMP_temperature;BMP_pressure;BME280_temperature;BME280_humidity;BME280_pressure;Samples;Min_cycle;Max_cycle;Signal;HPM_P1;HPM_P2
2023/03/12 00:00:47;;;;;;;0.70;0.70;;;2.10;72.70;;;;;;5002737;28;20052;-77
2023/03/12 00:03:13;;;;;;;0.73;0.40;;;2.10;72.30;;;;;;5010751;28;20027;-78
2023/03/12 00:05:40;;;;;;;0.82;0.40;;;2.10;71.90;;;;;;5001121;28;20228;-76
2023/03/12 00:08:06;;;;;;;0.98;0.47;;;2.00;71.70;;;;;;4999815;28;20026;-77
2023/03/12 00:10:33;;;;;;;1.25;0.30;;;1.80;71.90;;;;;;5004243;28;20490;-75
2023/03/12 00:12:58;;;;;;;1.27;0.50;;;1.70;72.10;;;;;;5000305;28;20026;-76
2023/03/12 00:15:24;;;;;;;0.70;0.43;;;1.60;72.40;;;;;;5005682;28;20073;-76
2023/03/12 00:17:50;;;;;;;0.80;0.50;;;1.50;72.70;;;;;;5022777;28;20130;-76
2023/03/12 00:20:16;;;;;;;0.28;0.28;;;1.40;73.00;;;;;;5003822;28;20038;-76
2023/03/12 00:22:42;;;;;;;1.35;0.70;;;1.40;73.20;;;;;;5013896;28;20018;-77
2023/03/12 00:25:13;;;;;;;0.57;0.40;;;1.30;73.40;;;;;;4996096;28;20018;-77
2023/03/12 00:27:38;;;;;;;0.65;0.43;;;1.30;73.70;;;;;;4996879;28;20037;-76
2023/03/12 00:30:05;;;;;;;0.95;0.65;;;1.40;73.90;;;;;;4997890;28;20326;-76
2023/03/12 00:32:32;;;;;;;1.27;0.55;;;1.40;74.00;;;;;;5015386;28;20043;-76
2023/03/12 00:34:58;;;;;;;0.45;0.30;;;1.50;73.70;;;;;;4996689;28;20018;-78
2023/03/12 00:37:23;;;;;;;0.75;0.65;;;1.60;73.50;;;;;;4996375;28;20098;-77
2023/03/12 00:39:49;;;;;;;0.50;0.43;;;1.50;73.20;;;;;;4999667;28;20035;-77
2023/03/12 00:42:16;;;;;;;1.10;0.50;;;1.40;73.30;;;;;;4999711;28;20030;-76
2023/03/12 00:44:44;;;;;;;0.63;0.50;;;1.40;73.40;;;;;;5005701;28;20027;-76
2023/03/12 00:47:10;;;;;;;0.95;0.73;;;1.30;73.50;;;;;;5008650;28;20033;-77
2023/03/12 00:49:36;;;;;;;0.20;0.20;;;1.30;73.70;;;;;;5005935;28;20018;-76
2023/03/12 00:52:03;;;;;;;0.75;0.52;;;1.30;73.80;;;;;;5003021;28;20027;-77
2023/03/12 00:54:29;;;;;;;0.52;0.40;;;1.20;74.00;;;;;;4997967;28;20026;-77
2023/03/12 00:56:54;;;;;;;0.40;0.40;;;1.20;74.30;;;;;;4996708;28;20065;-78
2023/03/12 00:59:20;;;;;;;0.82;0.50;;;1.20;75.20;;;;;;5002048;28;20052;-76
2023/03/12 01:01:46;;;;;;;1.15;0.68;;;1.20;74.80;;;;;;5002885;28;20039;-76
2023/03/12 01:04:12;;;;;;;0.52;0.52;;;1.20;75.00;;;;;;5001339;28;20026;-77
2023/03/12 01:06:38;;;;;;;0.40;0.40;;;1.20;75.20;;;;;;5001428;28;20026;-77
2023/03/12 01:09:06;;;;;;;1.67;0.80;;;1.20;75.50;;;;;;4997760;28;20026;-77
2023/03/12 01:11:33;;;;;;;1.88;0.50;;;1.20;75.80;;;;;;5000941;28;20037;-76
2023/03/12 01:13:59;;;;;;;0.82;0.52;;;1.20;76.10;;;;;;4999351;28;20034;-75
2023/03/12 01:16:29;;;;;;;0.65;0.60;;;1.20;76.30;;;;;;5002378;28;20026;-76
2023/03/12 01:18:59;;;;;;;1.20;0.70;;;1.30;76.40;;;;;;4996429;28;20018;-75
2023/03/12 01:21:25;;;;;;;2.50;0.55;;;1.40;76.30;;;;;;4998550;28;20045;-76
2023/03/12 01:23:51;;;;;;;0.80;0.50;;;1.40;76.00;;;;;;5007603;28;20093;-75
2023/03/12 01:26:17;;;;;;;1.38;1.02;;;1.40;75.80;;;;;;4999062;28;20045;-77
2023/03/12 01:28:43;;;;;;;2.28;1.10;;;1.40;75.80;;;;;;5009585;28;20025;-75
2023/03/12 01:31:11;;;;;;;2.92;0.90;;;1.30;75.60;;;;;;4997474;28;20038;-76
2023/03/12 01:33:37;;;;;;;2.30;0.95;;;1.30;75.70;;;;;;4995052;28;20034;-77
2023/03/12 01:36:03;;;;;;;1.55;1.00;;;1.30;75.90;;;;;;4994860;28;20022;-76
2023/03/12 01:38:29;;;;;;;1.65;0.95;;;1.30;76.00;;;;;;5001719;28;20436;-76
2023/03/12 01:40:55;;;;;;;0.75;0.60;;;1.50;76.10;;;;;;4995774;28;20050;-76
2023/03/12 01:43:25;;;;;;;1.25;0.70;;;1.60;75.90;;;;;;5002101;28;20136;-75
2023/03/12 01:46:05;;;;;;;1.35;0.65;;;1.80;75.70;;;;;;5017892;28;20148;-75
2023/03/12 01:48:44;;;;;;;0.70;0.50;;;1.90;75.50;;;;;;5007509;28;20105;-76
2023/03/12 01:51:12;;;;;;;0.45;0.32;;;2.00;75.20;;;;;;4997732;28;20022;-75
2023/03/12 01:53:41;;;;;;;0.40;0.40;;;2.10;74.60;;;;;;4998711;28;20022;-76
2023/03/12 01:56:08;;;;;;;0.40;0.40;;;2.10;74.40;;;;;;5004570;28;20049;-75
2023/03/12 01:58:37;;;;;;;0.57;0.40;;;2.10;74.20;;;;;;5013185;28;20026;-74
2023/03/12 02:01:03;;;;;;;0.43;0.40;;;2.20;74.00;;;;;;5011532;28;20031;-75
2023/03/12 02:03:30;;;;;;;0.65;0.50;;;2.20;73.90;;;;;;5012673;28;20042;-74
2023/03/12 02:06:18;;;;;;;0.65;0.40;;;2.20;73.80;;;;;;5012534;28;20061;-75
2023/03/12 02:08:46;;;;;;;0.50;0.40;;;2.30;74.00;;;;;;5014793;28;20019;-74
2023/03/12 02:11:12;;;;;;;0.98;0.38;;;2.30;74.10;;;;;;5015029;28;20054;-75
2023/03/12 02:13:38;;;;;;;0.80;0.50;;;2.40;74.00;;;;;;5022094;28;20096;-74
2023/03/12 02:16:05;;;;;;;0.93;0.60;;;2.40;73.90;;;;;;5011849;28;20032;-77
2023/03/12 02:18:33;;;;;;;0.30;0.30;;;2.30;73.70;;;;;;4999515;28;20067;-76
2023/03/12 02:21:22;;;;;;;0.90;0.70;;;2.30;73.60;;;;;;5015040;28;20041;-75
2023/03/12 02:24:06;;;;;;;1.10;0.70;;;2.20;73.50;;;;;;4996060;28;20023;-76
2023/03/12 02:26:33;;;;;;;0.75;0.40;;;2.10;73.70;;;;;;4993132;28;20030;-77
2023/03/12 02:29:00;;;;;;;1.27;0.70;;;2.10;73.90;;;;;;4996397;28;20035;-76
2023/03/12 02:31:31;;;;;;;0.65;0.45;;;2.00;74.00;;;;;;5004703;28;20037;-76
2023/03/12 02:33:59;;;;;;;2.23;0.70;;;1.90;74.10;;;;;;5006971;28;20026;-76
2023/03/12 02:36:25;;;;;;;1.17;0.52;;;1.70;74.40;;;;;;5014895;28;20254;-75
2023/03/12 02:38:52;;;;;;;0.73;0.60;;;1.60;74.80;;;;;;4994253;28;20019;-76
2023/03/12 02:41:23;;;;;;;0.82;0.55;;;1.50;75.40;;;;;;5005137;28;20041;-74
2023/03/12 02:43:57;;;;;;;0.98;0.70;;;1.40;76.00;;;;;;5003083;28;20022;-74
2023/03/12 02:46:24;;;;;;;0.63;0.30;;;1.30;76.40;;;;;;4994376;28;20094;-75
2023/03/12 02:48:54;;;;;;;1.48;0.93;;;1.30;76.90;;;;;;4994615;28;20034;-76
2023/03/12 02:51:19;;;;;;;0.60;0.60;;;1.30;77.10;;;;;;5001536;28;20026;-76
2023/03/12 02:53:45;;;;;;;0.60;0.60;;;1.20;77.40;;;;;;4994618;28;20027;-76
2023/03/12 02:56:11;;;;;;;0.80;0.60;;;1.20;77.70;;;;;;4994491;28;20121;-76
2023/03/12 02:58:36;;;;;;;0.50;0.50;;;1.20;78.00;;;;;;4995995;28;20034;-76
2023/03/12 03:01:02;;;;;;;0.80;0.50;;;1.20;78.40;;;;;;5018975;28;20018;-75
2023/03/12 03:03:28;;;;;;;0.95;0.90;;;1.20;78.80;;;;;;4996332;28;20038;-75
2023/03/12 03:05:54;;;;;;;1.02;0.60;;;1.20;78.90;;;;;;4996577;28;20064;-76
2023/03/12 03:08:20;;;;;;;0.90;0.52;;;1.30;79.20;;;;;;4992819;28;20089;-76
2023/03/12 03:10:45;;;;;;;0.50;0.50;;;1.30;79.20;;;;;;4995859;28;20029;-76
2023/03/12 03:13:11;;;;;;;0.70;0.70;;;1.40;79.40;;;;;;5002009;28;20033;-75
2023/03/12 03:15:37;;;;;;;1.33;0.88;;;1.40;79.60;;;;;;5011323;28;20084;-76
2023/03/12 03:18:03;;;;;;;0.90;0.90;;;1.40;79.70;;;;;;5005472;28;20054;-76
2023/03/12 03:20:30;;;;;;;1.02;0.57;;;1.40;80.70;;;;;;4997351;28;20058;-76
2023/03/12 03:22:56;;;;;;;0.70;0.70;;;1.50;80.30;;;;;;5012734;28;20078;-76
2023/03/12 03:25:22;;;;;;;1.55;0.80;;;1.50;80.60;;;;;;4997849;28;20064;-76
2023/03/12 03:27:48;;;;;;;1.00;0.82;;;1.60;80.80;;;;;;4998894;28;20022;-75
2023/03/12 03:30:15;;;;;;;1.60;0.80;;;1.60;81.00;;;;;;5000527;28;20524;-76
2023/03/12 03:32:41;;;;;;;1.27;0.75;;;1.60;81.10;;;;;;4997553;28;20142;-76
2023/03/12 03:35:07;;;;;;;0.93;0.70;;;1.70;81.30;;;;;;5005794;28;20006;-75
2023/03/12 03:37:33;;;;;;;0.60;0.43;;;1.80;81.60;;;;;;5032672;28;20397;-75
2023/03/12 03:39:59;;;;;;;0.60;0.60;;;1.80;81.60;;;;;;5003856;28;20113;-77
2023/03/12 03:42:25;;;;;;;1.35;0.88;;;1.80;81.70;;;;;;5005433;28;20034;-78
2023/03/12 03:44:51;;;;;;;2.40;0.93;;;1.90;82.00;;;;;;5009600;28;20023;-76
2023/03/12 03:47:16;;;;;;;2.33;1.20;;;1.90;82.30;;;;;;5009911;28;20133;-76
2023/03/12 03:49:42;;;;;;;1.83;1.30;;;1.90;82.50;;;;;;5001555;28;20014;-76
2023/03/12 03:52:08;;;;;;;2.05;1.05;;;1.90;82.70;;;;;;5000827;28;20379;-76
2023/03/12 03:54:33;;;;;;;1.48;1.25;;;2.00;83.00;;;;;;5016299;28;20026;-75
2023/03/12 03:56:59;;;;;;;1.30;1.20;;;2.00;83.20;;;;;;4997119;28;20030;-76
2023/03/12 03:59:25;;;;;;;1.38;1.10;;;2.00;83.40;;;;;;5001969;28;20006;-77
2023/03/12 04:01:51;;;;;;;3.35;1.90;;;2.10;83.60;;;;;;4997152;28;20031;-76
2023/03/12 04:04:17;;;;;;;2.63;1.52;;;2.10;83.80;;;;;;5001221;28;20036;-75
2023/03/12 04:06:42;;;;;;;2.00;1.27;;;2.10;84.00;;;;;;5018510;28;20042;-74
2023/03/12 04:09:08;;;;;;;2.83;1.73;;;2.20;84.30;;;;;;5030908;28;20033;-74
2023/03/12 04:11:34;;;;;;;3.33;1.95;;;2.20;84.50;;;;;;5016690;28;20061;-73
2023/03/12 04:14:00;;;;;;;2.38;1.60;;;2.20;84.70;;;;;;5026094;28;20208;-74
2023/03/12 04:16:26;;;;;;;1.23;1.10;;;2.20;85.00;;;;;;5033368;28;20086;-74
2023/03/12 04:18:52;;;;;;;1.38;1.23;;;2.30;85.20;;;;;;5017385;28;20041;-73
2023/03/12 04:21:17;;;;;;;1.50;1.40;;;2.30;85.40;;;;;;5017273;28;20030;-73
2023/03/12 04:23:43;;;;;;;2.65;1.65;;;2.30;85.40;;;;;;5002601;28;20083;-76
2023/03/12 04:26:09;;;;;;;1.25;1.10;;;2.40;85.70;;;;;;4996996;28;20455;-75
2023/03/12 04:28:36;;;;;;;2.10;1.50;;;2.40;85.80;;;;;;5013445;28;20065;-75
2023/03/12 04:31:05;;;;;;;3.08;1.80;;;2.40;86.00;;;;;;4997064;28;20026;-75
2023/03/12 04:33:35;;;;;;;2.00;1.40;;;2.40;86.20;;;;;;4999643;28;20113;-75
2023/03/12 04:36:00;;;;;;;3.05;1.50;;;2.50;86.30;;;;;;4997369;28;20370;-75
2023/03/12 04:38:28;;;;;;;1.85;1.50;;;2.40;86.40;;;;;;4997488;28;20036;-76
2023/03/12 04:41:06;;;;;;;2.00;1.80;;;2.40;86.60;;;;;;4998891;28;20105;-76
2023/03/12 04:43:33;;;;;;;1.42;1.30;;;2.40;86.80;;;;;;5001650;28;20073;-76
2023/03/12 04:45:59;;;;;;;1.65;1.40;;;2.40;87.10;;;;;;5021555;28;20037;-75
2023/03/12 04:48:25;;;;;;;1.63;1.30;;;2.40;87.20;;;;;;5006845;28;20038;-75
2023/03/12 04:50:51;;;;;;;1.98;1.55;;;2.40;87.40;;;;;;5010519;28;20019;-75
2023/03/12 04:53:17;;;;;;;2.35;1.35;;;2.40;87.70;;;;;;5007733;28;20030;-76
2023/03/12 04:55:43;;;;;;;1.42;1.33;;;2.40;88.10;;;;;;5009718;28;20035;-76
2023/03/12 04:58:09;;;;;;;1.65;1.55;;;2.50;88.30;;;;;;5004414;28;20227;-75
2023/03/12 05:00:35;;;;;;;1.15;1.05;;;2.50;88.50;;;;;;5001639;28;20077;-77
2023/03/12 05:03:01;;;;;;;2.65;2.15;;;2.50;88.90;;;;;;4999575;28;20485;-77
2023/03/12 05:05:27;;;;;;;3.13;2.00;;;2.50;89.10;;;;;;5001309;28;20026;-75
2023/03/12 05:07:55;;;;;;;2.45;1.75;;;2.50;89.30;;;;;;4996831;28;20030;-76
2023/03/12 05:10:21;;;;;;;2.90;1.77;;;2.60;89.70;;;;;;4993058;28;20026;-77
2023/03/12 05:12:47;;;;;;;3.00;2.30;;;2.60;89.90;;;;;;4995665;28;20106;-77
2023/03/12 05:15:12;;;;;;;2.20;1.60;;;2.70;90.00;;;;;;5001878;28;20379;-77
2023/03/12 05:17:38;;;;;;;2.42;1.63;;;2.70;90.00;;;;;;5009878;28;20042;-77
2023/03/12 05:20:05;;;;;;;2.50;2.08;;;2.70;90.00;;;;;;4998390;28;20022;-76
2023/03/12 05:22:30;;;;;;;3.90;2.25;;;2.60;90.00;;;;;;4998061;28;20052;-76
2023/03/12 05:24:56;;;;;;;2.15;1.95;;;2.60;90.20;;;;;;4998862;28;20026;-75
2023/03/12 05:27:24;;;;;;;2.45;1.88;;;2.50;90.40;;;;;;5011440;28;20080;-76
2023/03/12 05:29:51;;;;;;;1.83;1.55;;;2.50;90.50;;;;;;4999106;28;20174;-77
2023/03/12 05:32:16;;;;;;;2.03;1.60;;;2.40;90.70;;;;;;5001714;28;20045;-77
2023/03/12 05:34:42;;;;;;;2.75;1.70;;;2.40;90.90;;;;;;4998191;28;20208;-76
2023/03/12 05:37:08;;;;;;;2.67;2.20;;;2.40;91.00;;;;;;5006463;28;20022;-76
2023/03/12 05:39:34;;;;;;;1.90;1.52;;;2.50;91.20;;;;;;5007932;28;20065;-75
2023/03/12 05:42:00;;;;;;;1.60;1.25;;;2.60;91.20;;;;;;5002275;28;20026;-76
2023/03/12 05:44:26;;;;;;;2.20;1.70;;;2.60;91.00;;;;;;5013076;28;20030;-78
2023/03/12 05:46:53;;;;;;;3.85;1.90;;;2.60;90.90;;;;;;5017054;28;20597;-76
2023/03/12 05:49:19;;;;;;;1.80;1.50;;;2.60;90.80;;;;;;4999393;28;20061;-77
2023/03/12 05:51:49;;;;;;;2.10;1.73;;;2.50;90.80;;;;;;5000630;28;20069;-75
2023/03/12 05:54:16;;;;;;;2.33;1.85;;;2.50;90.80;;;;;;5013070;28;20045;-77
2023/03/12 05:56:42;;;;;;;2.28;1.52;;;2.50;90.80;;;;;;5014044;28;20018;-77
2023/03/12 05:59:09;;;;;;;2.30;1.48;;;2.60;90.70;;;;;;5007303;28;20121;-76
2023/03/12 06:01:36;;;;;;;1.95;1.60;;;2.60;90.70;;;;;;5011031;28;20028;-76
2023/03/12 06:04:01;;;;;;;2.17;1.80;;;2.70;90.80;;;;;;5001663;28;20423;-77
2023/03/12 06:06:30;;;;;;;2.58;1.92;;;2.70;90.70;;;;;;5003076;28;20014;-75
2023/03/12 06:08:56;;;;;;;2.85;2.38;;;2.80;90.60;;;;;;4997630;28;20019;-77
2023/03/12 06:11:21;;;;;;;2.67;1.85;;;2.90;90.90;;;;;;4994855;28;20022;-76
2023/03/12 06:13:47;;;;;;;3.15;1.83;;;2.90;90.60;;;;;;5003036;28;20036;-77
2023/03/12 06:16:21;;;;;;;2.08;1.75;;;3.00;90.70;;;;;;4998042;28;20022;-76
2023/03/12 06:18:48;;;;;;;2.72;1.77;;;3.10;90.60;;;;;;4996442;28;20475;-77
2023/03/12 06:21:16;;;;;;;2.10;1.63;;;3.20;90.40;;;;;;4998653;28;20018;-77
2023/03/12 06:23:43;;;;;;;3.33;2.10;;;3.20;90.30;;;;;;5004675;28;20038;-76
2023/03/12 06:26:10;;;;;;;4.57;1.52;;;3.30;90.10;;;;;;4998834;28;20078;-75
2023/03/12 06:28:36;;;;;;;3.53;1.77;;;3.30;90.10;;;;;;5009641;28;20030;-75
2023/03/12 06:31:02;;;;;;;2.40;1.35;;;3.30;90.10;;;;;;5008600;28;20552;-73
2023/03/12 06:33:28;;;;;;;2.38;1.58;;;3.30;90.10;;;;;;4992257;28;20180;-76
2023/03/12 06:35:59;;;;;;;3.03;1.42;;;3.30;90.00;;;;;;5001457;28;20034;-76
2023/03/12 06:38:25;;;;;;;1.40;1.20;;;3.50;90.10;;;;;;4992887;28;20032;-76
2023/03/12 06:40:56;;;;;;;1.40;1.23;;;3.50;90.00;;;;;;4996807;28;20054;-74
2023/03/12 06:43:22;;;;;;;1.70;1.08;;;3.60;89.90;;;;;;5000123;28;20018;-76
2023/03/12 06:45:48;;;;;;;1.70;1.20;;;3.80;89.50;;;;;;5006683;28;20332;-76
2023/03/12 06:48:14;;;;;;;1.02;0.82;;;3.80;88.90;;;;;;4997196;28;20018;-75
2023/03/12 06:50:39;;;;;;;1.67;1.05;;;3.90;88.80;;;;;;5000193;28;20053;-76
2023/03/12 06:53:05;;;;;;;0.88;0.70;;;3.90;88.50;;;;;;5005173;28;20037;-75
2023/03/12 06:55:31;;;;;;;2.38;1.20;;;4.00;88.60;;;;;;4999949;28;20479;-75
2023/03/12 06:57:56;;;;;;;1.73;1.00;;;4.10;88.50;;;;;;4999470;28;20033;-76
2023/03/12 07:00:22;;;;;;;1.63;1.10;;;4.10;88.10;;;;;;5001626;28;20018;-75
2023/03/12 07:02:48;;;;;;;0.82;0.82;;;4.20;87.70;;;;;;4998223;28;20034;-76
2023/03/12 07:05:13;;;;;;;1.73;1.13;;;4.10;87.70;;;;;;5007286;28;20103;-76
2023/03/12 07:07:39;;;;;;;2.40;1.13;;;4.10;87.80;;;;;;4997272;28;20030;-76
2023/03/12 07:10:05;;;;;;;1.63;1.23;;;4.00;88.40;;;;;;4997885;28;20054;-75
2023/03/12 07:12:32;;;;;;;2.20;1.20;;;4.10;88.60;;;;;;4999389;28;20081;-75
2023/03/12 07:14:58;;;;;;;1.67;1.00;;;4.20;89.40;;;;;;5004894;28;20112;-75
2023/03/12 07:17:25;;;;;;;1.40;0.90;;;4.30;89.70;;;;;;4996551;28;20480;-76
2023/03/12 07:19:51;;;;;;;1.45;0.90;;;4.50;89.80;;;;;;4997098;28;20727;-74
2023/03/12 07:22:17;;;;;;;1.35;1.25;;;4.60;89.30;;;;;;4998800;28;20010;-75
2023/03/12 07:24:42;;;;;;;1.20;1.10;;;4.70;89.10;;;;;;4997711;28;20110;-76
2023/03/12 07:27:08;;;;;;;0.85;0.70;;;4.70;89.60;;;;;;4996937;28;20092;-76
2023/03/12 07:29:33;;;;;;;0.80;0.75;;;4.70;89.60;;;;;;4999464;28;20118;-75
2023/03/12 07:31:59;;;;;;;0.63;0.60;;;4.80;89.90;;;;;;4996561;28;20060;-75
2023/03/12 07:34:25;;;;;;;0.82;0.82;;;4.80;90.20;;;;;;4995021;28;20081;-76
2023/03/12 07:36:50;;;;;;;1.15;0.88;;;5.00;90.50;;;;;;5011765;28;20105;-76
2023/03/12 07:39:16;;;;;;;1.20;0.90;;;5.10;90.20;;;;;;5006249;28;20033;-77
2023/03/12 07:41:42;;;;;;;1.48;0.85;;;5.30;90.70;;;;;;4998029;28;20097;-77
2023/03/12 07:44:08;;;;;;;2.33;0.82;;;5.50;90.70;;;;;;5006639;28;20065;-77
2023/03/12 07:46:34;;;;;;;0.60;0.55;;;5.70;90.50;;;;;;5022860;28;20041;-76
2023/03/12 07:48:59;;;;;;;0.60;0.60;;;5.80;90.50;;;;;;4996163;28;20096;-75
2023/03/12 07:51:25;;;;;;;2.70;0.60;;;5.90;90.20;;;;;;4998848;28;20022;-77
2023/03/12 07:53:51;;;;;;;0.75;0.75;;;6.00;90.20;;;;;;4998588;28;20049;-75
2023/03/12 07:56:17;;;;;;;0.77;0.77;;;6.00;90.00;;;;;;5001007;28;20058;-74
2023/03/12 07:58:42;;;;;;;0.75;0.65;;;6.00;89.80;;;;;;4993514;28;20030;-74
2023/03/12 08:01:08;;;;;;;0.88;0.70;;;6.10;90.00;;;;;;4998677;28;20050;-74
2023/03/12 08:03:34;;;;;;;0.50;0.45;;;6.00;89.30;;;;;;5004627;28;20033;-75
2023/03/12 08:06:02;;;;;;;1.10;0.43;;;6.00;89.70;;;;;;5002026;28;20061;-74
2023/03/12 08:08:29;;;;;;;0.95;0.40;;;6.00;89.80;;;;;;4998265;28;20397;-76
2023/03/12 08:10:55;;;;;;;1.27;0.73;;;6.00;89.30;;;;;;4999786;28;20379;-75
2023/03/12 08:13:22;;;;;;;0.75;0.65;;;6.00;88.70;;;;;;4997516;28;20114;-74
2023/03/12 08:15:50;;;;;;;1.75;0.60;;;5.90;88.90;;;;;;5007521;28;20398;-75
2023/03/12 08:18:16;;;;;;;0.95;0.60;;;6.00;88.80;;;;;;4999545;28;20062;-75
2023/03/12 08:20:42;;;;;;;0.75;0.60;;;6.20;89.20;;;;;;4996776;28;20368;-75
2023/03/12 08:23:08;;;;;;;3.70;0.90;;;6.30;87.70;;;;;;4998372;28;20105;-74
2023/03/12 08:25:35;;;;;;;0.70;0.57;;;6.40;86.10;;;;;;5002956;28;20045;-75
2023/03/12 08:28:04;;;;;;;2.15;0.90;;;6.40;86.20;;;;;;4997140;28;20496;-75
2023/03/12 08:30:30;;;;;;;0.95;0.60;;;6.40;85.60;;;;;;4996198;28;20121;-74
2023/03/12 08:32:57;;;;;;;1.40;0.80;;;6.30;85.70;;;;;;5001884;28;20027;-74
2023/03/12 08:35:22;;;;;;;3.28;0.88;;;6.20;86.10;;;;;;4998655;28;20021;-74
2023/03/12 08:37:48;;;;;;;0.50;0.50;;;6.10;86.70;;;;;;5001006;28;20084;-75
2023/03/12 08:40:14;;;;;;;1.23;0.60;;;6.10;86.80;;;;;;4997800;28;20301;-74
2023/03/12 08:42:41;;;;;;;2.17;0.85;;;6.10;87.40;;;;;;5002622;28;20085;-74
2023/03/12 08:45:08;;;;;;;1.27;0.70;;;6.10;87.00;;;;;;5000186;28;20026;-74
2023/03/12 08:47:33;;;;;;;1.52;0.88;;;6.00;87.30;;;;;;4993760;28;20029;-75
2023/03/12 08:49:59;;;;;;;1.90;1.00;;;6.10;87.30;;;;;;4993682;28;20038;-74
2023/03/12 08:52:25;;;;;;;1.92;0.90;;;6.10;86.70;;;;;;4996098;28;20031;-74
2023/03/12 08:54:50;;;;;;;2.10;1.00;;;6.00;87.10;;;;;;4995380;28;20076;-75
2023/03/12 08:57:16;;;;;;;1.02;0.77;;;6.00;87.70;;;;;;4995287;28;20035;-75
2023/03/12 08:59:42;;;;;;;2.22;0.80;;;6.00;89.40;;;;;;4994658;28;20113;-76
2023/03/12 09:02:11;;;;;;;0.80;0.50;;;5.90;90.10;;;;;;5013603;28;20053;-77
2023/03/12 09:04:37;;;;;;;0.63;0.63;;;6.00;90.70;;;;;;4996347;28;20141;-77
2023/03/12 09:07:03;;;;;;;1.25;1.15;;;6.00;91.00;;;;;;5001220;28;20022;-80
2023/03/12 09:09:29;;;;;;;2.55;1.10;;;6.00;91.40;;;;;;4997701;28;20127;-77
2023/03/12 09:11:55;;;;;;;3.70;1.27;;;6.20;92.50;;;;;;5001439;28;20340;-78
2023/03/12 09:14:20;;;;;;;2.95;0.98;;;6.30;92.10;;;;;;5005743;28;20026;-77
2023/03/12 09:16:49;;;;;;;1.02;0.63;;;6.40;92.20;;;;;;4997926;28;20026;-76
2023/03/12 09:19:15;;;;;;;1.15;0.98;;;6.50;92.20;;;;;;4996101;28;20031;-76
2023/03/12 09:21:41;;;;;;;0.63;0.60;;;6.60;92.30;;;;;;5005101;28;20053;-76
2023/03/12 09:24:07;;;;;;;0.50;0.50;;;6.60;92.30;;;;;;4995020;28;20062;-76
2023/03/12 09:26:32;;;;;;;0.60;0.60;;;6.60;92.90;;;;;;4995750;28;20047;-76
2023/03/12 09:28:58;;;;;;;0.90;0.57;;;6.70;93.20;;;;;;4995282;28;20531;-74
2023/03/12 09:31:24;;;;;;;0.60;0.60;;;6.80;93.20;;;;;;5003788;28;20022;-76
2023/03/12 09:33:50;;;;;;;0.30;0.28;;;7.00;93.20;;;;;;4998759;28;20487;-75
2023/03/12 09:36:16;;;;;;;0.60;0.40;;;7.10;93.00;;;;;;4995115;28;20029;-76
2023/03/12 09:38:42;;;;;;;0.47;0.47;;;7.10;93.10;;;;;;4995186;28;20022;-76
2023/03/12 09:41:38;;;;;;;1.35;0.85;;;7.00;93.00;;;;;;5000566;28;20544;-76
2023/03/12 09:44:15;;;;;;;0.60;0.60;;;6.80;93.20;;;;;;5002653;28;20491;-78
2023/03/12 09:46:50;;;;;;;0.88;0.60;;;6.70;93.20;;;;;;4999969;28;20030;-75
2023/03/12 09:49:45;;;;;;;0.68;0.68;;;6.60;93.30;;;;;;4995215;28;20081;-76
2023/03/12 09:52:41;;;;;;;0.95;0.95;;;6.40;93.50;;;;;;4990557;28;20030;-75
2023/03/12 09:55:20;;;;;;;0.55;0.55;;;6.20;93.70;;;;;;4963074;28;20042;-73
2023/03/12 09:57:48;;;;;;;0.30;0.30;;;5.90;93.90;;;;;;4993071;28;20467;-76
2023/03/12 10:00:17;;;;;;;0.50;0.35;;;5.70;94.30;;;;;;4994407;28;20022;-76
2023/03/12 10:03:01;;;;;;;0.40;0.40;;;5.70;95.10;;;;;;4994781;28;20026;-76
2023/03/12 10:05:37;;;;;;;0.40;0.30;;;5.80;95.20;;;;;;4996220;28;20044;-75
2023/03/12 10:08:14;;;;;;;0.25;0.20;;;5.90;95.20;;;;;;4994375;28;20034;-77
2023/03/12 10:10:40;;;;;;;0.73;0.73;;;5.90;95.20;;;;;;4995332;28;20040;-76
2023/03/12 10:13:23;;;;;;;0.32;0.30;;;6.00;95.40;;;;;;4997708;28;20010;-76
2023/03/12 10:16:31;;;;;;;0.35;0.35;;;6.10;95.20;;;;;;5006033;28;20038;-76
2023/03/12 10:19:29;;;;;;;0.35;0.35;;;6.20;95.10;;;;;;4956287;28;20110;-75
2023/03/12 10:22:16;;;;;;;0.35;0.35;;;6.40;95.00;;;;;;4976128;28;20038;-74
2023/03/12 10:24:53;;;;;;;0.30;0.30;;;6.40;94.80;;;;;;4991583;28;20387;-76
2023/03/12 10:27:22;;;;;;;0.68;0.52;;;6.50;94.80;;;;;;4994882;28;20109;-75
2023/03/12 10:29:51;;;;;;;0.40;0.40;;;6.40;94.60;;;;;;4997013;28;20037;-76
2023/03/12 10:32:22;;;;;;;0.55;0.55;;;6.40;94.80;;;;;;4994168;28;20112;-75
2023/03/12 10:35:02;;;;;;;1.23;0.80;;;6.30;95.20;;;;;;4995942;28;20395;-75
2023/03/12 10:37:37;;;;;;;0.93;0.60;;;6.40;95.50;;;;;;4997382;28;20026;-76
2023/03/12 10:40:04;;;;;;;1.23;0.85;;;6.40;95.20;;;;;;4995412;28;20113;-75
2023/03/12 10:42:30;;;;;;;0.50;0.40;;;6.10;95.20;;;;;;4995868;28;20529;-76
2023/03/12 10:45:19;;;;;;;0.55;0.55;;;5.90;95.70;;;;;;5010991;28;20046;-76
2023/03/12 10:47:51;;;;;;;0.85;0.35;;;5.70;96.40;;;;;;5007105;28;20348;-76
2023/03/12 10:50:18;;;;;;;0.50;0.50;;;5.60;97.00;;;;;;5004506;28;20038;-76
2023/03/12 10:52:47;;;;;;;0.88;0.80;;;5.70;97.10;;;;;;4998269;28;20502;-77
2023/03/12 10:55:28;;;;;;;0.57;0.43;;;5.60;97.00;;;;;;4999123;28;20333;-77
2023/03/12 10:57:54;;;;;;;0.50;0.50;;;5.70;97.50;;;;;;5004524;28;20031;-74
2023/03/12 11:00:26;;;;;;;0.22;0.22;;;5.80;97.50;;;;;;5004782;28;20030;-78
2023/03/12 11:02:58;;;;;;;0.40;0.40;;;5.90;97.50;;;;;;5002605;28;20040;-76
2023/03/12 11:05:31;;;;;;;0.30;0.30;;;6.00;97.30;;;;;;5002482;28;20030;-76
2023/03/12 11:07:59;;;;;;;1.65;0.22;;;6.20;97.10;;;;;;5008282;28;20126;-78
2023/03/12 11:10:44;;;;;;;0.25;0.25;;;6.20;97.10;;;;;;5002016;28;20057;-78
2023/03/12 11:13:27;;;;;;;0.30;0.30;;;6.20;97.00;;;;;;4992935;28;20030;-78
2023/03/12 11:15:55;;;;;;;0.40;0.40;;;6.20;97.30;;;;;;5004723;28;20037;-77
2023/03/12 11:18:25;;;;;;;0.40;0.40;;;6.40;97.40;;;;;;5003870;28;20034;-77
2023/03/12 11:20:56;;;;;;;0.20;0.20;;;6.60;97.10;;;;;;5003462;28;20023;-77
2023/03/12 11:23:26;;;;;;;0.60;0.30;;;6.70;96.90;;;;;;5002619;28;20026;-76
2023/03/12 11:26:17;;;;;;;0.52;0.40;;;6.80;96.80;;;;;;5003646;28;20137;-76
2023/03/12 11:28:55;;;;;;;0.40;0.40;;;6.90;96.50;;;;;;4997468;28;20042;-77
2023/03/12 11:31:32;;;;;;;0.52;0.40;;;7.10;96.20;;;;;;5003036;28;20033;-76
2023/03/12 11:34:04;;;;;;;0.28;0.28;;;7.30;96.10;;;;;;5007099;28;20023;-76
2023/03/12 11:36:48;;;;;;;0.25;0.25;;;7.40;95.30;;;;;;5009149;28;20026;-78
2023/03/12 11:39:25;;;;;;;0.40;0.40;;;7.30;95.30;;;;;;4995361;28;20026;-77
2023/03/12 11:42:07;;;;;;;0.30;0.30;;;7.30;95.10;;;;;;5005798;28;20027;-77
2023/03/12 11:44:41;;;;;;;0.13;0.10;;;7.30;95.20;;;;;;5013797;28;20483;-78
2023/03/12 11:47:35;;;;;;;0.20;0.20;;;7.30;95.50;;;;;;5009848;28;20033;-74
2023/03/12 11:50:39;;;;;;;0.40;0.40;;;7.30;95.50;;;;;;4991907;28;20099;-76
2023/03/12 11:53:29;;;;;;;0.20;0.20;;;7.40;95.70;;;;;;4972238;28;20034;-77
2023/03/12 11:56:01;;;;;;;0.43;0.40;;;7.40;95.90;;;;;;5007548;28;20022;-76
2023/03/12 11:58:33;;;;;;;;;;;7.50;96.20;;;;;;5012877;28;20023;-74
2023/03/12 12:01:14;;;;;;;0.30;0.30;;;7.60;96.00;;;;;;5003958;28;19932;-74
2023/03/12 12:03:59;;;;;;;0.45;0.30;;;7.50;96.00;;;;;;5001932;28;20038;-78
2023/03/12 12:06:38;;;;;;;0.40;0.35;;;7.50;96.20;;;;;;5000578;28;20030;-78
2023/03/12 12:09:19;;;;;;;0.40;0.40;;;7.40;96.50;;;;;;5006271;28;20026;-77
2023/03/12 12:11:59;;;;;;;0.60;0.60;;;7.70;96.90;;;;;;5010092;28;20427;-78
2023/03/12 12:14:40;;;;;;;0.75;0.73;;;7.90;96.20;;;;;;5007854;28;20049;-77
2023/03/12 12:17:14;;;;;;;0.40;0.40;;;7.90;96.30;;;;;;4998647;28;20023;-76
2023/03/12 12:19:49;;;;;;;0.70;0.68;;;7.90;95.90;;;;;;4997673;28;20478;-76
2023/03/12 12:22:49;;;;;;;0.50;0.50;;;7.70;96.20;;;;;;4998473;28;20035;-76
2023/03/12 12:25:24;;;;;;;0.55;0.55;;;7.60;96.70;;;;;;4997117;28;20018;-76
2023/03/12 12:28:08;;;;;;;0.50;0.35;;;7.60;97.60;;;;;;4997628;28;20053;-76
2023/03/12 12:30:55;;;;;;;1.42;0.57;;;7.80;97.40;;;;;;4995188;28;20117;-76
2023/03/12 12:33:49;;;;;;;0.77;0.63;;;7.80;97.60;;;;;;4979524;28;20061;-75
2023/03/12 12:36:16;;;;;;;0.50;0.50;;;7.80;98.00;;;;;;4969543;28;20105;-77
2023/03/12 12:38:49;;;;;;;0.50;0.50;;;7.90;98.00;;;;;;5019788;28;20030;-77
2023/03/12 12:41:24;;;;;;;0.30;0.30;;;8.00;98.00;;;;;;5001293;28;20053;-77
2023/03/12 12:43:54;;;;;;;0.40;0.40;;;8.10;98.00;;;;;;5009953;28;20033;-77
2023/03/12 12:46:28;;;;;;;1.25;0.82;;;8.10;97.90;;;;;;5015827;28;20025;-77
2023/03/12 12:49:11;;;;;;;0.80;0.80;;;8.10;98.00;;;;;;5019710;28;20030;-75
2023/03/12 12:51:44;;;;;;;1.33;0.98;;;8.10;98.20;;;;;;5021071;28;20053;-77
2023/03/12 12:54:38;;;;;;;1.00;0.90;;;8.10;98.50;;;;;;5022996;28;20034;-77
2023/03/12 12:57:37;;;;;;;0.80;0.70;;;8.10;98.70;;;;;;5023292;28;20029;-76
2023/03/12 13:00:21;;;;;;;0.57;0.50;;;8.10;98.80;;;;;;4982173;28;20091;-75
2023/03/12 13:02:48;;;;;;;0.45;0.45;;;8.10;99.10;;;;;;4978947;28;20094;-75
2023/03/12 13:05:21;;;;;;;0.68;0.60;;;8.20;99.20;;;;;;4982909;28;20023;-77
2023/03/12 13:07:47;;;;;;;0.50;0.50;;;8.30;99.20;;;;;;4984718;28;20053;-77
2023/03/12 13:10:31;;;;;;;0.90;0.90;;;8.30;99.40;;;;;;5021064;28;20029;-76